Time;durP1;ratioP1;P1;durP2;ratioP2;P2;SDS_P1;SDS_P2;PMS_P1;PMS_P2;Temp;Humidity;BMP_temperature;BMP_pressure;BME280_temperature;BME280_humidity;BME280_pressure;Samples;Min_cycle;Max_cycle;Signal;HPM_P1;HPM_P2
2023/01/22 00:01:32;;;;;;;24.40;12.57;;;-0.40;99.90;;;;;;4932957;29;20302;-75
2023/01/22 00:03:58;;;;;;;22.80;11.43;;;-0.50;99.90;;;;;;4931512;29;20031;-75
2023/01/22 00:06:24;;;;;;;22.10;12.05;;;-0.50;99.90;;;;;;4927796;29;20063;-75
2023/01/22 00:08:51;;;;;;;26.40;13.07;;;-0.50;99.90;;;;;;4910233;29;20040;-75
2023/01/22 00:11:18;;;;;;;23.33;12.20;;;-0.50;99.90;;;;;;4927485;29;20402;-75
2023/01/22 00:13:45;;;;;;;23.48;12.93;;;-0.50;99.90;;;;;;4927123;29;20036;-76
2023/01/22 00:16:16;;;;;;;26.30;12.75;;;-0.50;99.90;;;;;;4927394;29;20032;-76
2023/01/22 00:18:42;;;;;;;23.58;12.48;;;-0.50;99.90;;;;;;4927662;29;20035;-76
2023/01/22 00:21:09;;;;;;;25.35;12.48;;;-0.50;99.90;;;;;;4927119;29;20028;-75
2023/01/22 00:23:35;;;;;;;22.67;13.02;;;-0.50;99.90;;;;;;4927517;29;20091;-75
2023/01/22 00:26:14;;;;;;;24.10;12.98;;;-0.50;99.90;;;;;;4926400;29;20107;-76
2023/01/22 00:28:43;;;;;;;22.15;11.90;;;-0.40;99.90;;;;;;4927211;29;20023;-75
2023/01/22 06:03:08;;;;;;;20.15;11.15;;;0.40;99.90;;;;;;5109067;23;20245;-75
2023/01/22 06:05:43;;;;;;;23.40;12.43;;;0.50;99.90;;;;;;4918160;29;20031;-75
2023/01/22 06:08:10;;;;;;;20.02;11.65;;;0.50;99.90;;;;;;4909176;29;20024;-74
2023/01/22 06:10:43;;;;;;;20.92;12.10;;;0.50;99.90;;;;;;4920060;29;20336;-74
2023/01/22 06:13:09;;;;;;;24.45;13.38;;;0.50;99.90;;;;;;4944381;29;20031;-74
2023/01/22 06:15:34;;;;;;;21.10;12.52;;;0.50;99.90;;;;;;4927645;29;20032;-74
2023/01/22 06:18:13;;;;;;;23.80;13.20;;;0.50;99.90;;;;;;4923794;29;20035;-76
2023/01/22 06:20:39;;;;;;;22.52;13.15;;;0.50;99.90;;;;;;4925122;29;20028;-73
2023/01/22 06:23:07;;;;;;;22.10;13.20;;;0.60;99.90;;;;;;4908136;29;20095;-74
2023/01/22 06:25:33;;;;;;;22.73;12.48;;;0.50;99.90;;;;;;4924295;29;20198;-74
2023/01/22 06:28:13;;;;;;;24.42;13.43;;;0.50;99.90;;;;;;4923978;29;20028;-74
2023/01/22 06:30:39;;;;;;;22.88;13.27;;;0.50;99.90;;;;;;4923941;29;20058;-74
2023/01/22 06:33:05;;;;;;;24.13;13.15;;;0.50;99.90;;;;;;4924109;29;20039;-75
2023/01/22 06:35:32;;;;;;;26.90;14.25;;;0.50;99.90;;;;;;4929094;29;20242;-73
2023/01/22 06:37:57;;;;;;;27.63;14.23;;;0.40;99.90;;;;;;4927401;29;20183;-74
2023/01/22 06:40:23;;;;;;;23.30;13.35;;;0.40;99.90;;;;;;4926728;29;20102;-73
2023/01/22 06:42:49;;;;;;;25.55;13.18;;;0.40;99.90;;;;;;4927446;29;20028;-74
2023/01/22 06:45:16;;;;;;;27.05;14.20;;;0.50;99.90;;;;;;4926829;29;20035;-74
2023/01/22 06:47:47;;;;;;;26.05;14.25;;;0.50;99.90;;;;;;4927967;29;20145;-74
2023/01/22 06:50:14;;;;;;;27.20;13.82;;;0.40;99.90;;;;;;4930425;29;20033;-76
2023/01/22 06:52:40;;;;;;;28.65;15.25;;;0.50;99.90;;;;;;4930650;29;20035;-76
2023/01/22 06:55:07;;;;;;;24.77;13.70;;;0.50;99.90;;;;;;4930714;29;20369;-76
2023/01/22 06:57:33;;;;;;;24.20;14.32;;;0.40;99.90;;;;;;4922965;29;20035;-74
2023/01/22 06:59:59;;;;;;;25.73;13.93;;;0.50;99.90;;;;;;4911926;29;20059;-73
2023/01/22 07:02:25;;;;;;;25.17;13.63;;;0.60;99.90;;;;;;4938620;29;20047;-74
2023/01/22 07:04:51;;;;;;;27.80;14.63;;;0.60;99.90;;;;;;4947770;29;20032;-74
2023/01/22 07:07:16;;;;;;;27.02;15.07;;;0.60;99.90;;;;;;4947014;29;20078;-74
2023/01/22 07:09:42;;;;;;;28.50;14.82;;;0.70;99.90;;;;;;4947523;29;20050;-74
2023/01/22 07:12:08;;;;;;;26.63;14.30;;;0.70;99.90;;;;;;4947329;29;20031;-75
2023/01/22 07:14:34;;;;;;;25.50;13.20;;;0.70;99.90;;;;;;4947711;29;20171;-73
2023/01/22 07:16:59;;;;;;;25.60;13.10;;;0.70;99.90;;;;;;4947436;29;20067;-74
2023/01/22 07:19:25;;;;;;;25.73;14.18;;;0.70;99.90;;;;;;4947143;29;20058;-74
2023/01/22 07:21:51;;;;;;;21.50;12.40;;;0.70;99.90;;;;;;4947382;29;20031;-75
2023/01/22 07:24:16;;;;;;;24.08;13.50;;;0.60;99.90;;;;;;4946898;29;20292;-74
2023/01/22 07:26:42;;;;;;;24.17;13.45;;;0.70;99.90;;;;;;4947444;29;20214;-76
2023/01/22 07:29:09;;;;;;;25.10;14.18;;;0.80;99.90;;;;;;4947417;29;20079;-75
2023/01/22 07:31:35;;;;;;;26.75;14.63;;;0.70;99.90;;;;;;4947396;29;20086;-75
2023/01/22 07:34:01;;;;;;;25.05;13.63;;;0.70;99.90;;;;;;4947517;29;20063;-75
2023/01/22 07:36:27;;;;;;;23.38;12.90;;;0.80;99.90;;;;;;4946984;29;20036;-75
2023/01/22 07:38:53;;;;;;;27.75;14.85;;;0.80;99.90;;;;;;4959843;29;20304;-75
2023/01/22 07:41:19;;;;;;;27.75;15.18;;;0.80;99.90;;;;;;4966213;29;20168;-74
2023/01/22 07:43:47;;;;;;;26.33;13.45;;;0.80;99.90;;;;;;4966561;29;20321;-76
2023/01/22 07:46:13;;;;;;;25.95;14.45;;;0.80;99.90;;;;;;4967790;29;20031;-74
2023/01/22 07:48:39;;;;;;;27.27;14.65;;;0.90;99.90;;;;;;4968080;29;20023;-74
2023/01/22 07:51:05;;;;;;;26.15;14.10;;;0.90;99.90;;;;;;4968179;29;20041;-76
2023/01/22 07:53:31;;;;;;;25.60;13.48;;;0.90;99.90;;;;;;4966679;29;20035;-76
2023/01/22 07:55:57;;;;;;;26.23;14.20;;;0.80;99.90;;;;;;4949640;29;20260;-75
2023/01/22 07:58:23;;;;;;;25.83;14.07;;;0.90;99.90;;;;;;4951189;29;20032;-76
2023/01/22 08:00:49;;;;;;;27.90;14.52;;;1.00;99.90;;;;;;4946733;29;20100;-75
2023/01/22 08:03:15;;;;;;;27.13;15.20;;;1.00;99.90;;;;;;4945905;29;20052;-75
2023/01/22 08:05:42;;;;;;;25.15;13.50;;;1.10;99.90;;;;;;4946646;29;20209;-75
2023/01/22 08:08:16;;;;;;;25.17;13.82;;;1.00;99.90;;;;;;4946721;29;20301;-73
2023/01/22 08:10:43;;;;;;;24.50;13.32;;;1.10;99.90;;;;;;4946331;29;20094;-75
2023/01/22 08:13:23;;;;;;;26.38;14.35;;;1.10;99.90;;;;;;4946895;29;20034;-81
2023/01/22 08:16:01;;;;;;;25.90;14.05;;;1.20;99.90;;;;;;4930323;29;20036;-73
2023/01/22 08:18:26;;;;;;;28.00;14.35;;;1.30;99.90;;;;;;4945718;29;20038;-73
2023/01/22 08:20:52;;;;;;;26.63;14.73;;;1.30;99.90;;;;;;4946254;29;20027;-74
2023/01/22 08:23:18;;;;;;;27.33;15.52;;;1.40;99.90;;;;;;4945651;29;20098;-74
2023/01/22 08:25:43;;;;;;;24.08;13.75;;;1.40;99.90;;;;;;4946173;29;20047;-73
2023/01/22 08:28:10;;;;;;;23.92;12.90;;;1.40;99.90;;;;;;4946464;29;20329;-75
2023/01/22 08:30:36;;;;;;;24.83;13.50;;;1.40;99.90;;;;;;4945986;29;20083;-73
2023/01/22 08:33:02;;;;;;;24.73;13.38;;;1.40;99.90;;;;;;4946428;29;20065;-73
2023/01/22 08:35:31;;;;;;;23.55;13.32;;;1.30;99.90;;;;;;4945324;29;20225;-75
2023/01/22 08:38:00;;;;;;;24.20;12.98;;;1.30;99.90;;;;;;4947108;29;20043;-79
2023/01/22 08:40:26;;;;;;;23.02;12.65;;;1.30;99.90;;;;;;4946751;29;20087;-75
2023/01/22 08:42:53;;;;;;;25.55;13.52;;;1.30;99.90;;;;;;4928937;29;20265;-78
2023/01/22 08:45:19;;;;;;;26.10;13.93;;;1.30;99.90;;;;;;4945040;29;20046;-78
2023/01/22 08:47:45;;;;;;;22.35;12.63;;;1.30;99.90;;;;;;4945856;29;20032;-77
2023/01/22 08:50:11;;;;;;;23.58;12.73;;;1.30;99.90;;;;;;4929011;29;20035;-77
2023/01/22 08:52:37;;;;;;;25.80;12.45;;;1.30;99.90;;;;;;4945538;29;20031;-75
2023/01/22 08:55:05;;;;;;;23.20;12.98;;;1.30;99.90;;;;;;4945793;29;20055;-74
2023/01/22 08:57:56;;;;;;;24.60;13.40;;;1.30;99.90;;;;;;4937577;29;20158;-82
2023/01/22 09:00:23;;;;;;;25.17;13.70;;;1.40;99.90;;;;;;4909433;29;20035;-82
2023/01/22 09:02:49;;;;;;;23.42;12.90;;;1.40;99.90;;;;;;4898289;29;20104;-81
2023/01/22 09:05:16;;;;;;;25.67;13.30;;;1.50;99.90;;;;;;4887519;29;20035;-76
2023/01/22 09:08:03;;;;;;;24.73;13.48;;;1.50;99.90;;;;;;4945048;29;20201;-76
2023/01/22 09:10:28;;;;;;;22.73;12.68;;;1.40;99.90;;;;;;4927381;29;20224;-75
2023/01/22 09:13:00;;;;;;;25.58;13.60;;;1.50;99.90;;;;;;4945247;29;20067;-75
2023/01/22 09:15:26;;;;;;;27.00;13.43;;;1.40;99.90;;;;;;4944726;29;20058;-73
2023/01/22 09:17:52;;;;;;;26.48;13.80;;;1.40;99.90;;;;;;4945114;29;20027;-72
2023/01/22 09:20:18;;;;;;;25.02;13.13;;;1.40;99.90;;;;;;4945011;29;20355;-73
2023/01/22 09:22:44;;;;;;;23.88;13.27;;;1.50;99.90;;;;;;4945203;29;20044;-73
2023/01/22 09:25:10;;;;;;;21.60;13.07;;;1.60;99.90;;;;;;4945318;29;20036;-76
2023/01/22 09:27:36;;;;;;;23.27;12.88;;;1.60;99.90;;;;;;4944992;29;20398;-76
2023/01/22 09:30:02;;;;;;;23.02;13.13;;;1.50;99.90;;;;;;4945201;29;20455;-75
2023/01/22 09:32:28;;;;;;;24.85;13.23;;;1.60;99.90;;;;;;4944930;29;20039;-73
2023/01/22 09:34:54;;;;;;;23.17;13.23;;;1.70;99.90;;;;;;4945233;29;20034;-74
2023/01/22 09:37:24;;;;;;;25.20;13.82;;;1.70;99.90;;;;;;4944700;29;20090;-73
2023/01/22 09:39:49;;;;;;;23.67;13.27;;;1.80;99.90;;;;;;4945311;29;20095;-73
2023/01/22 09:42:20;;;;;;;24.25;13.25;;;2.00;99.90;;;;;;4928053;29;20332;-73
2023/01/22 09:44:50;;;;;;;22.73;12.50;;;2.20;99.90;;;;;;4944953;29;20028;-73
2023/01/22 09:47:22;;;;;;;20.50;12.20;;;2.40;99.90;;;;;;4944899;29;20027;-73
2023/01/22 09:49:56;;;;;;;21.63;12.10;;;2.50;99.90;;;;;;4945078;29;20035;-73
2023/01/22 09:52:26;;;;;;;20.85;12.02;;;2.50;99.90;;;;;;4944921;29;20035;-76
2023/01/22 09:54:52;;;;;;;22.90;13.25;;;2.60;99.90;;;;;;4944907;29;20028;-74
2023/01/22 09:57:19;;;;;;;23.70;13.35;;;2.60;99.90;;;;;;4919292;29;20175;-74
2023/01/22 09:59:49;;;;;;;24.40;12.73;;;2.70;99.90;;;;;;4907041;29;20043;-73
2023/01/22 10:02:26;;;;;;;22.23;12.43;;;2.70;99.90;;;;;;4910514;29;20123;-73
2023/01/22 10:04:57;;;;;;;22.30;12.45;;;2.60;99.90;;;;;;4935624;29;20042;-74
2023/01/22 10:07:35;;;;;;;22.83;11.77;;;2.60;99.90;;;;;;4964281;29;20046;-72
2023/01/22 10:10:24;;;;;;;22.92;13.27;;;2.60;99.90;;;;;;4964123;29;20035;-72
2023/01/22 10:13:16;;;;;;;22.45;12.43;;;2.60;99.90;;;;;;4963695;29;20167;-72
2023/01/22 10:15:42;;;;;;;22.60;12.05;;;2.50;99.90;;;;;;4952904;29;20047;-73
2023/01/22 10:18:24;;;;;;;22.45;13.05;;;2.50;99.90;;;;;;4963764;29;20139;-73
2023/01/22 10:20:50;;;;;;;21.45;12.27;;;2.50;99.90;;;;;;4963767;29;20190;-73
2023/01/22 10:23:19;;;;;;;19.42;12.07;;;2.60;99.90;;;;;;4967503;28;20027;-72
2023/01/22 10:25:46;;;;;;;22.23;12.38;;;2.70;99.90;;;;;;4967880;29;20306;-73
2023/01/22 10:28:14;;;;;;;19.05;11.23;;;2.80;99.90;;;;;;4967814;29;20046;-73
2023/01/22 10:30:44;;;;;;;;;;;3.00;99.90;;;;;;4967858;29;20274;-73
2023/01/22 10:33:21;;;;;;;21.23;12.10;;;3.00;99.90;;;;;;4967606;29;19939;-73
2023/01/22 10:35:51;;;;;;;20.30;11.32;;;3.00;99.90;;;;;;4967154;29;20053;-72
2023/01/22 10:38:35;;;;;;;18.55;10.98;;;3.00;99.90;;;;;;4967525;29;20038;-73
2023/01/22 10:41:02;;;;;;;18.70;10.88;;;2.90;99.90;;;;;;4967463;29;20119;-73
2023/01/22 10:43:34;;;;;;;21.00;11.05;;;3.00;99.90;;;;;;4966748;29;20030;-74
2023/01/22 10:46:13;;;;;;;16.33;10.23;;;3.00;99.90;;;;;;4967819;29;20078;-72
2023/01/22 10:48:40;;;;;;;19.83;11.52;;;2.90;99.90;;;;;;4966757;29;20027;-72
2023/01/22 10:51:14;;;;;;;17.48;9.68;;;2.80;99.90;;;;;;4967442;29;20285;-73
2023/01/22 10:53:45;;;;;;;18.02;10.23;;;2.80;99.90;;;;;;4966931;29;20217;-73
2023/01/22 10:56:12;;;;;;;18.80;10.55;;;2.80;99.90;;;;;;4967367;29;20329;-75
2023/01/22 10:58:45;;;;;;;17.42;10.25;;;2.80;99.90;;;;;;4934962;29;20198;-72
2023/01/22 11:01:31;;;;;;;19.92;10.88;;;2.90;99.90;;;;;;4928759;29;20040;-74
2023/01/22 11:03:57;;;;;;;19.45;11.38;;;2.90;99.90;;;;;;4929874;29;20052;-73
2023/01/22 11:06:38;;;;;;;19.52;10.98;;;3.00;99.90;;;;;;4962555;29;20293;-74
2023/01/22 11:09:12;;;;;;;21.40;10.85;;;3.00;99.90;;;;;;4967360;29;20031;-74
2023/01/22 11:11:46;;;;;;;18.92;10.73;;;2.90;99.90;;;;;;4966760;29;20086;-73
2023/01/22 11:14:24;;;;;;;20.52;11.52;;;3.00;99.90;;;;;;4966754;29;20027;-72
2023/01/22 11:16:52;;;;;;;18.67;10.75;;;3.30;99.90;;;;;;4966883;29;20095;-76
2023/01/22 11:19:22;;;;;;;19.60;10.73;;;3.30;99.90;;;;;;4949316;29;20039;-75
2023/01/22 11:21:50;;;;;;;19.23;10.77;;;3.40;99.90;;;;;;4966444;29;20035;-73
2023/01/22 11:24:36;;;;;;;18.88;10.75;;;3.50;99.90;;;;;;4949749;29;20038;-72
2023/01/22 11:27:13;;;;;;;17.08;9.55;;;3.30;99.90;;;;;;4967814;29;20035;-72
2023/01/22 11:29:51;;;;;;;19.50;11.13;;;3.30;99.90;;;;;;4949166;29;20380;-74
2023/01/22 11:32:45;;;;;;;15.73;9.45;;;3.40;99.90;;;;;;4933608;29;20043;-75
2023/01/22 11:35:16;;;;;;;16.98;10.23;;;3.60;99.90;;;;;;4948417;29;20047;-72
2023/01/22 11:37:42;;;;;;;16.38;10.18;;;3.50;99.90;;;;;;4966122;29;20074;-71
2023/01/22 11:40:27;;;;;;;18.02;10.15;;;3.50;99.90;;;;;;4966085;29;20038;-78
2023/01/22 11:43:17;;;;;;;17.73;10.27;;;3.50;99.90;;;;;;4933504;29;20101;-74
2023/01/22 11:46:06;;;;;;;21.85;11.52;;;3.50;99.90;;;;;;4965658;29;20031;-76
2023/01/22 11:48:41;;;;;;;19.13;11.38;;;3.30;99.90;;;;;;4948617;29;20070;-75
2023/01/22 11:51:25;;;;;;;18.48;10.45;;;3.30;99.90;;;;;;4965817;29;20123;-78
2023/01/22 11:54:09;;;;;;;18.80;10.93;;;3.40;99.90;;;;;;4948959;29;20027;-72
2023/01/22 11:57:14;;;;;;;19.10;11.00;;;3.20;99.90;;;;;;4965105;29;20034;-73
2023/01/22 12:00:08;;;;;;;20.15;11.52;;;3.10;99.90;;;;;;4906858;29;20144;-78
2023/01/22 12:02:33;;;;;;;21.00;11.65;;;3.00;99.90;;;;;;4926880;29;20334;-74
2023/01/22 12:05:17;;;;;;;20.38;10.80;;;2.90;99.90;;;;;;4939171;29;20027;-74
2023/01/22 12:07:58;;;;;;;19.65;11.32;;;2.80;99.90;;;;;;4965273;29;20086;-76
2023/01/22 12:10:56;;;;;;;21.00;12.63;;;2.70;99.90;;;;;;4949290;29;20114;-76
2023/01/22 12:13:51;;;;;;;21.90;12.20;;;2.80;99.90;;;;;;4924301;29;20067;-74
2023/01/22 12:16:30;;;;;;;18.70;10.88;;;2.90;99.90;;;;;;4963691;29;20281;-74
2023/01/22 12:19:24;;;;;;;24.30;13.00;;;3.00;99.90;;;;;;4946605;29;20031;-76
2023/01/22 12:22:07;;;;;;;18.48;10.75;;;2.80;99.90;;;;;;4945737;29;20024;-74
2023/01/22 12:24:39;;;;;;;19.02;11.55;;;2.80;99.90;;;;;;4927755;29;20043;-76
2023/01/22 12:27:05;;;;;;;17.27;10.32;;;2.80;99.90;;;;;;4961338;29;20023;-75
2023/01/22 12:29:44;;;;;;;17.40;9.70;;;2.90;99.90;;;;;;4964337;29;20119;-75
2023/01/22 12:32:14;;;;;;;18.77;10.48;;;2.90;99.90;;;;;;4965293;29;20031;-74
2023/01/22 12:35:07;;;;;;;17.48;10.70;;;2.90;99.90;;;;;;4965323;29;20027;-73
2023/01/22 12:37:46;;;;;;;40.38;23.30;;;2.90;99.90;;;;;;4964909;29;20102;-77
2023/01/22 12:40:32;;;;;;;27.23;16.52;;;2.90;99.90;;;;;;4965252;29;20031;-74
2023/01/22 12:43:03;;;;;;;29.38;17.23;;;3.00;99.90;;;;;;4941552;29;20028;-74
2023/01/22 12:46:07;;;;;;;19.00;10.85;;;3.00;99.90;;;;;;4944272;29;20028;-74
2023/01/22 12:48:47;;;;;;;18.10;11.05;;;2.90;99.90;;;;;;4945050;29;20039;-76
2023/01/22 12:51:40;;;;;;;17.50;10.40;;;2.90;99.90;;;;;;4945686;29;20128;-74
2023/01/22 12:54:21;;;;;;;19.55;10.82;;;3.00;99.90;;;;;;4946572;29;20034;-74
2023/01/22 12:56:48;;;;;;;17.80;9.88;;;3.00;99.90;;;;;;4948549;29;20028;-75
2023/01/22 12:59:36;;;;;;;17.93;9.47;;;3.00;99.90;;;;;;4963144;29;20325;-75
2023/01/22 13:02:37;;;;;;;20.02;11.18;;;3.00;99.90;;;;;;4958348;28;20035;-77
2023/01/22 13:05:45;;;;;;;18.65;10.75;;;3.00;99.90;;;;;;4910327;29;20430;-77
2023/01/22 13:08:42;;;;;;;16.42;10.30;;;3.00;99.90;;;;;;5120125;27;20117;-74
2023/01/22 13:11:10;;;;;;;17.83;10.57;;;3.00;99.90;;;;;;5136058;28;20314;-75
2023/01/22 13:13:52;;;;;;;17.02;10.25;;;3.00;99.90;;;;;;5119124;28;20031;-73
2023/01/22 13:16:21;;;;;;;15.63;9.63;;;3.00;99.90;;;;;;5113962;28;20039;-74
2023/01/22 13:18:50;;;;;;;17.35;9.68;;;2.90;99.90;;;;;;5118963;28;20083;-76
2023/01/22 13:21:22;;;;;;;19.70;10.95;;;2.90;99.90;;;;;;5118575;28;20164;-76
2023/01/22 13:23:48;;;;;;;32.83;17.60;;;2.90;99.90;;;;;;5119370;28;20019;-72
2023/01/22 13:26:24;;;;;;;21.63;12.48;;;2.90;99.90;;;;;;5119448;28;20394;-75
2023/01/22 13:28:58;;;;;;;16.42;9.77;;;2.90;99.90;;;;;;5115297;28;20039;-75
2023/01/22 13:31:24;;;;;;;15.02;8.93;;;2.90;99.90;;;;;;5119888;28;20020;-73
2023/01/22 13:33:58;;;;;;;13.32;8.52;;;2.90;99.90;;;;;;5119085;28;20094;-74
2023/01/22 13:36:25;;;;;;;14.63;9.02;;;2.90;99.90;;;;;;5119143;28;20023;-74
2023/01/22 13:38:58;;;;;;;16.40;9.32;;;2.90;99.90;;;;;;5119148;28;20043;-74
2023/01/22 13:41:31;;;;;;;14.95;9.05;;;2.90;99.90;;;;;;5118477;28;20028;-75
2023/01/22 13:43:58;;;;;;;13.52;7.60;;;3.00;99.90;;;;;;5119662;28;20019;-75
2023/01/22 13:46:25;;;;;;;14.40;8.75;;;2.90;99.90;;;;;;5118100;28;20040;-75
2023/01/22 13:49:07;;;;;;;15.83;8.83;;;2.90;99.90;;;;;;5118491;28;20333;-76
2023/01/22 13:51:33;;;;;;;14.93;9.20;;;2.90;99.90;;;;;;5118507;28;20023;-76
2023/01/22 13:54:00;;;;;;;21.73;12.52;;;2.90;99.90;;;;;;5119227;28;20054;-73
2023/01/22 13:56:27;;;;;;;21.02;12.30;;;2.80;99.90;;;;;;5118895;28;20107;-75
2023/01/22 13:59:16;;;;;;;15.27;8.27;;;2.90;99.90;;;;;;5107496;28;20039;-75
2023/01/22 14:01:45;;;;;;;11.80;7.72;;;2.80;99.90;;;;;;5108781;28;20093;-76
2023/01/22 14:04:35;;;;;;;20.45;10.88;;;2.80;99.90;;;;;;5098460;28;20024;-74
2023/01/22 14:07:02;;;;;;;13.68;7.82;;;2.70;99.90;;;;;;5077808;28;20055;-73
2023/01/22 14:09:36;;;;;;;12.68;7.50;;;2.80;99.90;;;;;;5078210;28;20087;-75
2023/01/22 14:12:20;;;;;;;13.10;6.85;;;2.70;99.90;;;;;;5078112;28;20196;-77
2023/01/22 14:14:46;;;;;;;11.60;7.28;;;2.70;99.90;;;;;;5077355;28;20048;-75
2023/01/22 14:17:27;;;;;;;13.15;7.60;;;2.70;99.90;;;;;;5085263;28;20066;-76
2023/01/22 14:19:53;;;;;;;11.55;6.85;;;2.80;99.90;;;;;;5083984;28;20286;-75
2023/01/22 14:22:21;;;;;;;12.23;7.05;;;2.70;99.90;;;;;;5084835;28;20036;-76
2023/01/22 14:24:51;;;;;;;11.00;6.70;;;2.70;99.90;;;;;;5085227;28;20218;-74
2023/01/22 14:27:21;;;;;;;10.95;6.90;;;2.70;99.90;;;;;;5084832;28;20036;-75
2023/01/22 14:29:47;;;;;;;13.13;7.25;;;2.70;99.90;;;;;;5084279;28;20032;-75
2023/01/22 14:32:13;;;;;;;12.05;6.75;;;2.70;99.90;;;;;;5084526;28;20123;-76
2023/01/22 14:34:38;;;;;;;14.63;8.18;;;2.70;99.90;;;;;;5084167;28;20312;-74
2023/01/22 14:37:04;;;;;;;11.80;7.28;;;2.70;99.90;;;;;;5084546;28;20059;-75
2023/01/22 14:39:34;;;;;;;11.65;7.22;;;2.70;99.90;;;;;;5083189;28;20030;-75
2023/01/22 14:42:01;;;;;;;19.35;8.52;;;2.70;99.90;;;;;;5084546;28;20037;-75
2023/01/22 14:44:27;;;;;;;13.50;7.35;;;2.70;99.90;;;;;;5084605;28;20378;-75
2023/01/22 14:46:53;;;;;;;12.68;7.35;;;2.70;99.90;;;;;;5083730;28;20037;-74
2023/01/22 14:49:19;;;;;;;10.10;6.15;;;2.70;99.90;;;;;;5084550;28;20087;-78
2023/01/22 14:51:45;;;;;;;10.98;7.53;;;2.70;99.90;;;;;;5083699;28;20086;-72
2023/01/22 14:54:10;;;;;;;21.88;9.63;;;2.70;99.90;;;;;;5084667;28;20082;-76
2023/01/22 14:56:36;;;;;;;13.52;7.50;;;2.70;99.90;;;;;;5083672;28;20177;-75
2023/01/22 14:59:03;;;;;;;10.45;6.75;;;2.90;99.90;;;;;;5064269;28;20033;-74
2023/01/22 15:01:29;;;;;;;11.30;7.10;;;2.80;99.90;;;;;;5064180;28;20112;-75
2023/01/22 15:03:55;;;;;;;10.77;6.43;;;2.70;99.90;;;;;;5063579;28;20176;-75
2023/01/22 15:06:24;;;;;;;12.15;7.18;;;2.70;99.90;;;;;;5081246;28;20052;-77
2023/01/22 15:08:50;;;;;;;12.23;7.15;;;2.60;99.90;;;;;;5083507;28;20125;-74
2023/01/22 15:11:15;;;;;;;12.30;7.00;;;2.60;99.90;;;;;;5083997;28;20031;-76
2023/01/22 15:13:41;;;;;;;10.55;6.53;;;2.50;99.90;;;;;;5082352;28;20254;-73
2023/01/22 15:16:09;;;;;;;11.82;6.78;;;2.50;99.90;;;;;;5083650;28;20198;-74
2023/01/22 15:18:36;;;;;;;12.73;7.50;;;2.50;99.90;;;;;;5073889;28;20037;-75
2023/01/22 15:21:05;;;;;;;11.23;6.78;;;2.50;99.90;;;;;;5083152;28;20344;-72
2023/01/22 15:23:32;;;;;;;12.25;6.93;;;2.40;99.90;;;;;;5083953;28;20058;-73
2023/01/22 15:25:59;;;;;;;33.85;20.50;;;2.50;99.90;;;;;;5063218;28;20270;-73
2023/01/22 15:28:25;;;;;;;14.40;9.17;;;2.40;99.90;;;;;;5062758;28;20029;-73
2023/01/22 15:30:52;;;;;;;10.35;6.60;;;2.40;99.90;;;;;;5062210;28;20033;-73
2023/01/22 15:33:19;;;;;;;11.55;7.78;;;2.40;99.90;;;;;;5063472;28;20052;-73
2023/01/22 15:35:45;;;;;;;14.73;9.23;;;2.50;99.90;;;;;;5062824;28;20286;-72
2023/01/22 15:38:10;;;;;;;11.80;8.07;;;2.40;99.90;;;;;;5082367;28;20032;-72
2023/01/22 15:40:36;;;;;;;12.27;7.30;;;2.40;99.90;;;;;;5083202;28;20300;-73
2023/01/22 15:43:03;;;;;;;12.45;6.70;;;2.30;99.90;;;;;;5082591;28;20033;-72
2023/01/22 15:45:29;;;;;;;10.50;6.35;;;2.30;99.90;;;;;;5083098;28;20090;-73
2023/01/22 15:47:56;;;;;;;12.75;7.18;;;2.40;99.90;;;;;;5082495;28;20032;-73
2023/01/22 15:50:22;;;;;;;10.77;6.70;;;2.40;99.90;;;;;;5082795;28;20031;-72
2023/01/22 15:52:53;;;;;;;9.68;6.40;;;2.40;99.90;;;;;;5082183;28;20318;-73
2023/01/22 15:55:19;;;;;;;10.68;6.30;;;2.30;99.90;;;;;;5082957;28;20036;-74
2023/01/22 15:57:44;;;;;;;10.10;6.03;;;2.30;99.90;;;;;;5114985;28;20040;-73
2023/01/22 16:00:12;;;;;;;10.45;6.68;;;2.30;99.90;;;;;;5082890;28;20084;-74
2023/01/22 16:02:38;;;;;;;10.73;6.40;;;2.20;99.90;;;;;;5082985;28;20039;-73
2023/01/22 16:05:05;;;;;;;9.90;6.35;;;2.20;99.90;;;;;;5080745;28;20052;-74
2023/01/22 16:07:30;;;;;;;10.27;6.72;;;2.30;99.90;;;;;;5081898;28;20111;-74
2023/01/22 16:09:56;;;;;;;9.30;6.40;;;2.20;99.90;;;;;;5082266;28;20028;-74
2023/01/22 16:12:22;;;;;;;9.35;6.05;;;2.20;99.90;;;;;;5082525;28;20096;-73
2023/01/22 16:14:48;;;;;;;8.52;5.80;;;2.20;99.90;;;;;;5080737;28;20024;-74
2023/01/22 16:17:14;;;;;;;9.85;6.25;;;2.10;99.90;;;;;;5082190;28;20078;-73
2023/01/22 16:19:40;;;;;;;11.23;6.57;;;2.10;99.90;;;;;;5082159;28;20032;-73
2023/01/22 16:22:06;;;;;;;12.13;6.50;;;2.20;99.90;;;;;;5081901;28;20317;-73
2023/01/22 16:24:32;;;;;;;10.18;6.43;;;2.10;99.90;;;;;;5082118;28;20028;-73
2023/01/22 16:26:58;;;;;;;11.00;6.80;;;2.10;99.90;;;;;;5081883;28;20067;-73
2023/01/22 16:29:24;;;;;;;10.20;6.60;;;2.10;99.90;;;;;;5082396;28;20031;-73
2023/01/22 16:31:50;;;;;;;9.77;6.53;;;2.10;99.90;;;;;;5081792;28;20033;-72
2023/01/22 16:34:20;;;;;;;11.88;6.88;;;2.10;99.90;;;;;;5082101;28;20036;-73
2023/01/22 16:36:47;;;;;;;10.63;6.70;;;2.10;99.90;;;;;;5081581;28;20074;-73
2023/01/22 16:39:20;;;;;;;9.37;6.70;;;2.10;99.90;;;;;;5082407;28;20074;-73
2023/01/22 16:41:50;;;;;;;10.75;6.68;;;2.10;99.90;;;;;;5080989;28;20031;-73
2023/01/22 16:44:18;;;;;;;10.82;6.85;;;2.10;99.90;;;;;;5081895;28;20263;-72
2023/01/22 16:46:46;;;;;;;11.60;6.72;;;2.10;99.90;;;;;;5081259;28;20073;-76
2023/01/22 16:49:16;;;;;;;10.25;6.78;;;2.00;99.90;;;;;;5081917;28;20028;-74
2023/01/22 16:51:46;;;;;;;11.13;7.10;;;2.00;99.90;;;;;;5114953;28;20028;-74
2023/01/22 16:54:26;;;;;;;13.10;7.60;;;2.00;99.90;;;;;;5082138;28;20031;-72
2023/01/22 16:56:53;;;;;;;11.40;6.90;;;2.00;99.90;;;;;;5080187;28;20032;-73
2023/01/22 16:59:20;;;;;;;10.43;6.50;;;2.00;99.90;;;;;;5081690;28;20029;-73
2023/01/22 17:01:46;;;;;;;11.75;7.20;;;2.00;99.90;;;;;;5081207;28;20025;-73
2023/01/22 17:04:12;;;;;;;12.63;7.90;;;2.00;99.90;;;;;;5081742;28;20090;-74
2023/01/22 17:06:41;;;;;;;12.13;7.75;;;2.00;99.90;;;;;;5081679;28;20052;-74
2023/01/22 17:09:12;;;;;;;11.10;6.88;;;2.00;99.90;;;;;;5080243;28;20037;-73
2023/01/22 17:11:38;;;;;;;11.18;6.85;;;2.10;99.90;;;;;;5080822;28;20063;-73
2023/01/22 17:14:04;;;;;;;12.25;7.20;;;2.10;99.90;;;;;;5081360;28;20029;-73
2023/01/22 17:16:30;;;;;;;12.60;7.43;;;2.10;99.90;;;;;;5081873;28;20044;-74
2023/01/22 17:18:57;;;;;;;11.57;7.45;;;2.00;99.90;;;;;;5081390;28;20020;-75
2023/01/22 17:21:23;;;;;;;12.40;7.90;;;2.00;99.90;;;;;;5082110;28;20037;-74
2023/01/22 17:23:49;;;;;;;11.90;7.47;;;2.00;99.90;;;;;;5081732;28;20206;-72
2023/01/22 17:26:16;;;;;;;13.18;8.30;;;2.00;99.90;;;;;;5082128;28;20082;-72
2023/01/22 17:28:42;;;;;;;13.45;8.45;;;2.00;99.90;;;;;;5081821;28;20214;-73
2023/01/22 17:31:10;;;;;;;12.05;7.57;;;2.00;99.90;;;;;;5081685;28;20198;-74
2023/01/22 17:33:37;;;;;;;12.63;7.65;;;2.00;99.90;;;;;;5080642;28;20056;-72
2023/01/22 17:36:04;;;;;;;12.18;7.40;;;2.00;99.90;;;;;;5081066;28;20348;-72
2023/01/22 17:38:31;;;;;;;12.10;7.68;;;2.00;99.90;;;;;;5081374;28;20021;-74
2023/01/22 17:41:03;;;;;;;14.67;8.10;;;2.00;99.90;;;;;;5081044;28;20082;-74
2023/01/22 17:43:29;;;;;;;10.75;7.00;;;2.10;99.90;;;;;;5081917;28;20024;-75
2023/01/22 17:45:55;;;;;;;11.98;7.78;;;2.00;99.90;;;;;;5081227;28;20039;-73
2023/01/22 17:48:20;;;;;;;10.93;7.00;;;2.00;99.90;;;;;;5081707;28;20322;-74
2023/01/22 17:50:48;;;;;;;10.07;6.78;;;1.90;99.90;;;;;;5081503;28;20315;-77
2023/01/22 17:53:14;;;;;;;9.55;5.82;;;2.00;99.90;;;;;;5082482;28;20024;-72
2023/01/22 17:55:39;;;;;;;12.48;7.60;;;1.90;99.90;;;;;;5085101;28;20031;-75
2023/01/22 17:58:06;;;;;;;12.00;7.10;;;2.00;99.90;;;;;;5084589;28;20028;-77
2023/01/22 18:00:33;;;;;;;12.30;6.90;;;2.00;99.90;;;;;;5118568;28;20035;-72
2023/01/22 18:02:59;;;;;;;11.95;7.65;;;1.90;99.90;;;;;;5074424;28;20068;-75
2023/01/22 18:05:25;;;;;;;14.57;7.07;;;2.00;99.90;;;;;;5044970;28;20196;-75
2023/01/22 18:07:51;;;;;;;11.80;7.03;;;2.00;99.90;;;;;;5044203;28;20080;-74
2023/01/22 18:10:19;;;;;;;11.15;7.15;;;2.00;99.90;;;;;;5045092;28;20029;-75
2023/01/22 18:12:44;;;;;;;12.48;7.95;;;2.00;99.90;;;;;;5044973;28;20247;-75
2023/01/22 18:15:11;;;;;;;11.27;7.03;;;2.00;99.90;;;;;;5044537;28;20041;-75
2023/01/22 18:17:36;;;;;;;10.85;7.40;;;2.00;99.90;;;;;;5044649;28;20056;-75
2023/01/22 18:20:05;;;;;;;10.90;6.95;;;2.00;99.90;;;;;;5044387;28;20018;-75
2023/01/22 18:22:32;;;;;;;10.35;6.75;;;2.00;99.90;;;;;;5045034;28;20040;-74
2023/01/22 18:24:58;;;;;;;11.50;6.72;;;2.00;99.90;;;;;;5044386;28;20100;-76
2023/01/22 18:27:24;;;;;;;10.27;6.85;;;2.00;99.90;;;;;;5044527;28;20096;-75
2023/01/22 18:29:50;;;;;;;11.43;7.35;;;2.00;99.90;;;;;;5044246;28;20209;-75